Terminal Aerodrome Forecast
Issued by NWS

Home | Current Version | Previous Version | Text Only | Print | Product List | Glossary On
Versions: 1 2 3 4 5 6 7 8 9 10 11 12 13 14 15 16
000
FTUS43 KILX 300020 AAA
TAFCMI
TAF AMD
KCMI 300020Z 3000/3024 21012G17KT P6SM VCTS BKN050CB
      TEMPO 3000/3002 4SM TSRA BR BKN035CB
     FM300200 20008KT P6SM SCT050 BKN250
     FM300700 19005KT P6SM -SHRA VCTS OVC035CB
     FM301200 14008KT 5SM -SHRA BR VCTS OVC025CB
     FM301800 17012G17KT 6SM -SHRA VCTS OVC025CB
     FM302100 28013G21KT 5SM -SHRA BR SCT006 OVC015=

USA.gov is the U.S. government's official web portal to all federal, state and local government web resources and services.